Estherville, Estherville Municipal Airport (KEST)

NameEstherville Municipal Airport
CityEstherville
CountryUnited States
ICAOKEST
IATAEST
Altitude402 m
CoordinatesGoogle Map
Live Air TrafficLiveATC.net
METARKEST 101252Z AUTO 23011KT 3/4SM BR OVC002 M08/M09 A3021 RMK AO2 SLP254 I1004 T10781089
2018-12-10 12:52:00 Wind: Southwest (230°) 5.66 m/s - Visibility: 6437.36 m - Weather: Mist - Temperature: -8 °C - Dew point: -9 °C - Humidity: 92.6% - Pressure: 1023.03 hPa
Statistics

The table below shows the detailed information of all flights to/from Estherville, Estherville Municipal Airport (KEST).